ADDS METAR Data

Data at: 1836 UTC 20 Jul 2018

METAR for:CYQI (Yarmouth Arpt, NS, CN)
Text:CYQI 201800Z 18007KT 15SM FEW025 FEW250 24/16 A3020 RMK SC1CI1 SC TR CI TR SLP229 DENSITY ALT 900FT
Temperature: 24.0°C ( 75°F)
Dewpoint: 16.0°C ( 61°F) [RH = 61%]
Pressure (altimeter):30.20 inches Hg (1022.8 mb) [Sea level pressure: 1022.9 mb]
Winds:from the S (180 degrees) at 8 MPH (7 knots; 3.6 m/s)
Visibility: 15 sm ( 24 km)
Ceiling:at least 12,000 feet AGL
Clouds: few clouds at 2500 feet AGL, few clouds at 25000 feet AGL